createdAt,value
2023-01-10T00:00:11.234Z,12.60
2023-01-10T00:02:38.794Z,12.73
2023-01-10T00:05:06.220Z,12.75
2023-01-10T00:07:33.473Z,12.91
2023-01-10T00:10:01.112Z,12.89
2023-01-10T00:12:46.831Z,12.89
2023-01-10T00:15:14.362Z,13.05
2023-01-10T00:17:41.576Z,13.10
2023-01-10T00:20:09.127Z,13.07
2023-01-10T00:22:36.587Z,13.18
2023-01-10T00:25:03.992Z,13.26
2023-01-10T00:27:31.178Z,13.34
2023-01-10T00:30:01.367Z,13.03
2023-01-10T00:32:28.582Z,13.20
2023-01-10T00:34:55.751Z,13.25
2023-01-10T00:37:23.374Z,13.15
2023-01-10T00:39:50.574Z,13.28
2023-01-10T00:42:41.100Z,13.05
2023-01-10T00:45:08.858Z,13.19
2023-01-10T00:47:36.050Z,13.20
2023-01-10T00:50:05.938Z,13.34
2023-01-10T00:52:33.417Z,13.03
2023-01-10T00:55:00.687Z,13.22
2023-01-10T00:57:27.875Z,13.04
2023-01-10T00:59:55.423Z,13.15
2023-01-10T01:02:22.704Z,13.08
2023-01-10T01:04:49.983Z,13.17
2023-01-10T01:07:17.449Z,13.22
2023-01-10T01:10:03.223Z,13.15
2023-01-10T01:12:30.664Z,12.93
2023-01-10T01:14:58.231Z,12.90
2023-01-10T01:17:25.387Z,12.91
2023-01-10T01:19:52.945Z,13.02
2023-01-10T01:22:20.240Z,13.01
2023-01-10T01:24:47.602Z,12.98
2023-01-10T01:27:15.033Z,12.91
2023-01-10T01:29:43.267Z,12.63
2023-01-10T01:32:10.834Z,12.74
2023-01-10T01:34:38.249Z,12.46
2023-01-10T01:37:05.465Z,12.70
2023-01-10T01:39:32.761Z,12.25
2023-01-10T01:42:00.542Z,12.61
2023-01-10T01:44:35.340Z,12.73
2023-01-10T01:47:05.505Z,12.79
2023-01-10T01:49:33.355Z,12.52
2023-01-10T01:52:05.456Z,12.65
2023-01-10T01:54:32.884Z,12.00
2023-01-10T01:57:03.272Z,12.38
2023-01-10T01:59:30.992Z,12.21
2023-01-10T02:02:00.555Z,12.59
2023-01-10T02:04:29.474Z,12.34
2023-01-10T02:06:57.184Z,12.68
2023-01-10T02:09:26.356Z,12.26
2023-01-10T02:11:54.363Z,11.95
2023-01-10T02:14:21.964Z,11.95
2023-01-10T02:16:49.179Z,11.84
2023-01-10T02:19:35.069Z,11.85
2023-01-10T02:22:05.292Z,11.91
2023-01-10T02:24:38.361Z,11.97
2023-01-10T02:27:05.712Z,12.05
2023-01-10T02:29:50.528Z,11.87
2023-01-10T02:32:40.723Z,11.63
2023-01-10T02:35:16.856Z,11.18
2023-01-10T02:37:54.050Z,11.59
2023-01-10T02:40:22.722Z,11.76
2023-01-10T02:43:10.534Z,11.87
2023-01-10T02:45:56.322Z,11.89
2023-01-10T02:48:23.813Z,11.77
2023-01-10T02:50:52.857Z,11.51
2023-01-10T02:53:24.887Z,11.65
2023-01-10T02:56:10.524Z,11.34
2023-01-10T02:58:40.941Z,11.47
2023-01-10T03:01:15.776Z,11.49
2023-01-10T03:03:46.958Z,11.19
2023-01-10T03:06:18.919Z,11.19
2023-01-10T03:09:00.570Z,11.32
2023-01-10T03:11:40.360Z,11.75
2023-01-10T03:14:15.826Z,11.01
2023-01-10T03:16:44.518Z,11.50
2023-01-10T03:19:12.851Z,11.60
2023-01-10T03:21:40.436Z,11.34
2023-01-10T03:24:09.793Z,11.19
2023-01-10T03:27:00.296Z,10.07
2023-01-10T03:29:47.250Z,9.89
2023-01-10T03:32:14.626Z,9.91
2023-01-10T03:34:42.092Z,10.55
2023-01-10T03:37:14.227Z,9.12
2023-01-10T03:39:50.497Z,9.87
2023-01-10T03:42:20.656Z,10.13
2023-01-10T03:44:51.268Z,10.19
2023-01-10T03:47:18.496Z,9.54
2023-01-10T03:49:48.049Z,9.15
2023-01-10T03:52:16.301Z,10.34
2023-01-10T03:54:44.031Z,10.16
2023-01-10T03:57:24.015Z,10.69
2023-01-10T03:59:55.335Z,11.27
2023-01-10T04:02:22.489Z,11.10
2023-01-10T04:04:50.573Z,11.37
2023-01-10T04:07:17.854Z,11.11
2023-01-10T04:09:44.977Z,11.15
2023-01-10T04:12:12.509Z,11.34
2023-01-10T04:14:39.739Z,10.95
2023-01-10T04:17:06.932Z,11.23
2023-01-10T04:19:34.388Z,11.32
2023-01-10T04:22:01.551Z,11.41
2023-01-10T04:24:28.774Z,11.39
2023-01-10T04:26:56.186Z,11.73
2023-01-10T04:29:23.430Z,11.42
2023-01-10T04:31:50.921Z,10.89
2023-01-10T04:34:20.207Z,11.76
2023-01-10T04:36:49.374Z,11.58
2023-01-10T04:39:17.665Z,11.46
2023-01-10T04:41:45.072Z,11.58
2023-01-10T04:44:12.841Z,11.34
2023-01-10T04:46:40.233Z,11.78
2023-01-10T04:49:09.162Z,11.67
2023-01-10T04:51:36.333Z,11.61
2023-01-10T04:54:03.537Z,11.70
2023-01-10T04:56:31.011Z,11.64
2023-01-10T04:58:58.227Z,11.39
2023-01-10T05:01:25.828Z,11.36
2023-01-10T05:03:56.402Z,11.11
2023-01-10T05:06:23.874Z,11.28
2023-01-10T05:08:51.204Z,11.32
2023-01-10T05:11:18.705Z,11.35
2023-01-10T05:13:47.933Z,11.37
2023-01-10T05:16:15.810Z,11.26
2023-01-10T05:18:43.296Z,11.70
2023-01-10T05:21:11.755Z,11.30
2023-01-10T05:23:39.373Z,10.52
2023-01-10T05:26:07.970Z,11.39
2023-01-10T05:28:35.330Z,10.95
2023-01-10T05:31:02.529Z,10.99
2023-01-10T05:33:29.937Z,10.49
2023-01-10T05:35:57.173Z,11.29
2023-01-10T05:38:24.386Z,10.72
2023-01-10T05:40:55.175Z,11.17
2023-01-10T05:43:22.633Z,11.21
2023-01-10T05:45:49.854Z,11.12
2023-01-10T05:48:17.614Z,10.66
2023-01-10T05:50:44.779Z,10.37
2023-01-10T05:53:11.970Z,10.31
2023-01-10T05:55:39.396Z,9.49
2023-01-10T05:58:06.521Z,9.42
2023-01-10T06:00:33.750Z,9.79
2023-01-10T06:03:01.362Z,10.17
2023-01-10T06:05:28.636Z,10.43
2023-01-10T06:07:56.090Z,10.19
2023-01-10T06:10:24.025Z,10.82
2023-01-10T06:12:52.046Z,10.50
2023-01-10T06:15:19.299Z,10.62
2023-01-10T06:17:46.754Z,10.30
2023-01-10T06:20:13.972Z,10.32
2023-01-10T06:22:42.258Z,9.55
2023-01-10T06:25:10.546Z,9.66
2023-01-10T06:27:41.383Z,10.55
2023-01-10T06:30:09.161Z,10.68
2023-01-10T06:32:36.732Z,10.85
2023-01-10T06:35:04.370Z,9.70
2023-01-10T06:37:31.586Z,10.48
2023-01-10T06:39:59.085Z,10.84
2023-01-10T06:42:26.288Z,10.67
2023-01-10T06:44:53.508Z,10.12
2023-01-10T06:47:21.009Z,10.55
2023-01-10T06:49:48.283Z,10.59
2023-01-10T06:52:15.477Z,10.37
2023-01-10T06:54:42.933Z,9.68
2023-01-10T06:57:10.103Z,10.44
2023-01-10T06:59:37.301Z,9.79
2023-01-10T07:02:04.924Z,9.90
2023-01-10T07:04:32.160Z,10.04
2023-01-10T07:06:59.370Z,9.95
2023-01-10T07:09:26.771Z,9.84
2023-01-10T07:11:53.930Z,9.76
2023-01-10T07:14:21.097Z,9.96
2023-01-10T07:16:48.509Z,10.30
2023-01-10T07:19:17.619Z,9.97
2023-01-10T07:21:44.911Z,9.02
2023-01-10T07:24:12.384Z,9.52
2023-01-10T07:26:39.584Z,10.02
2023-01-10T07:29:07.019Z,10.09
2023-01-10T07:31:35.025Z,10.23
2023-01-10T07:34:02.322Z,9.94
2023-01-10T07:36:29.470Z,9.57
2023-01-10T07:38:56.933Z,9.64
2023-01-10T07:41:24.124Z,9.65
2023-01-10T07:43:51.290Z,9.23
2023-01-10T07:46:18.889Z,9.62
2023-01-10T07:48:47.059Z,9.86
2023-01-10T07:51:14.534Z,9.99
2023-01-10T07:53:42.062Z,9.90
2023-01-10T07:56:09.331Z,10.38
2023-01-10T07:58:36.513Z,10.23
2023-01-10T08:01:04.571Z,9.91
2023-01-10T08:03:33.304Z,10.19
2023-01-10T08:06:01.319Z,10.30
2023-01-10T08:08:28.592Z,10.37
2023-01-10T08:10:56.155Z,10.47
2023-01-10T08:13:23.474Z,10.76
2023-01-10T08:15:51.871Z,10.45
2023-01-10T08:18:19.894Z,11.07
2023-01-10T08:20:48.677Z,10.91
2023-01-10T08:23:15.966Z,10.34
2023-01-10T08:25:43.713Z,10.38
2023-01-10T08:28:11.305Z,9.96
2023-01-10T08:30:38.464Z,10.77
2023-01-10T08:33:06.471Z,10.47
2023-01-10T08:35:43.534Z,10.81
2023-01-10T08:38:11.238Z,10.48
2023-01-10T08:40:38.530Z,9.71
2023-01-10T08:43:06.655Z,9.99
2023-01-10T08:45:34.473Z,9.74
2023-01-10T08:48:01.969Z,10.29
2023-01-10T08:50:29.196Z,9.92
2023-01-10T08:53:00.334Z,8.41
2023-01-10T08:55:28.222Z,9.15
2023-01-10T08:57:55.546Z,9.08
2023-01-10T09:00:23.213Z,9.44
2023-01-10T09:02:50.559Z,8.77
2023-01-10T09:05:31.436Z,8.91
2023-01-10T09:08:00.154Z,8.14
2023-01-10T09:10:28.327Z,8.32
2023-01-10T09:12:55.704Z,8.44
2023-01-10T09:15:23.849Z,8.02
2023-01-10T09:17:53.194Z,8.26
2023-01-10T09:20:20.460Z,8.91
2023-01-10T09:22:47.957Z,8.50
2023-01-10T09:25:15.268Z,8.37
2023-01-10T09:27:42.509Z,7.90
2023-01-10T09:30:10.178Z,8.27
2023-01-10T09:32:37.559Z,8.02
2023-01-10T09:35:04.844Z,7.81
2023-01-10T09:37:33.752Z,7.71
2023-01-10T09:40:01.034Z,8.09
2023-01-10T09:42:54.202Z,8.18
2023-01-10T09:45:24.519Z,8.24
2023-01-10T09:47:54.294Z,8.22
2023-01-10T09:50:24.227Z,7.77
2023-01-10T09:52:52.639Z,8.33
2023-01-10T09:55:22.365Z,8.58
2023-01-10T09:57:50.135Z,7.85
2023-01-10T10:00:18.434Z,7.87
2023-01-10T10:02:46.096Z,7.47
2023-01-10T10:05:15.644Z,6.96
2023-01-10T10:07:42.919Z,7.71
2023-01-10T10:10:16.957Z,7.44
2023-01-10T10:12:59.529Z,8.30
2023-01-10T10:15:32.660Z,7.51
2023-01-10T10:17:59.800Z,8.02
2023-01-10T10:20:33.337Z,8.23
2023-01-10T10:23:19.365Z,7.69
2023-01-10T10:25:59.059Z,7.54
2023-01-10T10:28:32.775Z,7.46
2023-01-10T10:31:18.691Z,7.43
2023-01-10T10:33:55.001Z,7.24
2023-01-10T10:36:45.757Z,6.91
2023-01-10T10:39:13.857Z,7.94
2023-01-10T10:41:43.287Z,7.32
2023-01-10T10:44:22.569Z,7.35
2023-01-10T10:46:50.240Z,7.11
2023-01-10T10:49:18.886Z,7.33
2023-01-10T10:51:48.181Z,7.10
2023-01-10T10:54:16.587Z,7.05
2023-01-10T10:56:44.020Z,7.02
2023-01-10T10:59:12.088Z,7.85
2023-01-10T11:01:43.595Z,7.19
2023-01-10T11:04:12.369Z,7.47
2023-01-10T11:06:40.990Z,7.82
2023-01-10T11:09:08.179Z,8.41
2023-01-10T11:11:39.753Z,7.69
2023-01-10T11:14:07.851Z,7.72
2023-01-10T11:16:36.659Z,8.12
2023-01-10T11:19:22.571Z,7.92
2023-01-10T11:21:59.790Z,7.85
2023-01-10T11:24:33.994Z,7.89
2023-01-10T11:27:02.550Z,7.64
2023-01-10T11:29:37.135Z,8.43
2023-01-10T11:32:15.452Z,8.31
2023-01-10T11:34:43.352Z,8.17
2023-01-10T11:37:17.049Z,7.59
2023-01-10T11:39:44.595Z,7.94
2023-01-10T11:42:24.412Z,8.20
2023-01-10T11:44:51.629Z,8.44
2023-01-10T11:47:20.972Z,8.04
2023-01-10T11:49:48.622Z,8.10
2023-01-10T11:52:21.973Z,8.23
2023-01-10T11:54:49.767Z,8.79
2023-01-10T11:57:21.046Z,8.54
2023-01-10T11:59:52.433Z,8.01
2023-01-10T12:02:20.154Z,7.82
2023-01-10T12:04:47.648Z,7.92
2023-01-10T12:07:14.905Z,7.69
2023-01-10T12:09:43.100Z,8.30
2023-01-10T12:12:21.371Z,8.42
2023-01-10T12:14:48.653Z,8.46
2023-01-10T12:17:18.890Z,8.58
2023-01-10T12:19:46.092Z,8.33
2023-01-10T12:22:14.063Z,8.24
2023-01-10T12:24:43.935Z,8.84
2023-01-10T12:27:14.662Z,8.63
2023-01-10T12:29:43.605Z,8.69
2023-01-10T12:32:31.324Z,8.51
2023-01-10T12:35:07.216Z,8.61
2023-01-10T12:37:40.091Z,8.72
2023-01-10T12:40:13.745Z,7.83
2023-01-10T12:43:13.442Z,8.00
2023-01-10T12:45:46.980Z,7.96
2023-01-10T12:48:21.371Z,8.37
2023-01-10T12:50:53.971Z,7.95
2023-01-10T12:53:25.959Z,8.06
2023-01-10T12:55:55.777Z,8.39
2023-01-10T12:58:26.080Z,8.19
2023-01-10T13:00:54.134Z,7.67
2023-01-10T13:03:23.231Z,7.89
2023-01-10T13:05:52.098Z,8.27
2023-01-10T13:08:21.092Z,8.68
2023-01-10T13:10:50.339Z,8.55
2023-01-10T13:13:36.747Z,8.13
2023-01-10T13:16:10.431Z,7.62
2023-01-10T13:18:37.656Z,8.04
2023-01-10T13:21:09.117Z,7.33
2023-01-10T13:23:39.780Z,8.02
2023-01-10T13:26:09.217Z,7.18
2023-01-10T13:28:37.668Z,8.23
2023-01-10T13:31:07.125Z,7.69
2023-01-10T13:33:40.341Z,8.05
2023-01-10T13:36:11.414Z,8.44
2023-01-10T13:38:44.601Z,8.75
2023-01-10T13:41:30.727Z,8.48
2023-01-10T13:44:06.146Z,8.35
2023-01-10T13:46:35.195Z,7.92
2023-01-10T13:49:03.602Z,8.84
2023-01-10T13:51:31.207Z,8.58
2023-01-10T13:53:59.493Z,8.23
2023-01-10T13:56:36.262Z,7.78
2023-01-10T13:59:23.356Z,7.85
2023-01-10T14:02:10.638Z,8.20
2023-01-10T14:04:39.538Z,7.63
2023-01-10T14:07:13.594Z,8.06
2023-01-10T14:09:47.909Z,7.69
2023-01-10T14:12:35.614Z,8.37
2023-01-10T14:15:06.104Z,8.33
2023-01-10T14:17:34.311Z,8.63
2023-01-10T14:20:03.603Z,8.02
2023-01-10T14:22:32.275Z,7.54
2023-01-10T14:25:00.118Z,7.80
2023-01-10T14:27:28.416Z,7.70
2023-01-10T14:29:59.309Z,7.70
2023-01-10T14:32:38.383Z,7.87
2023-01-10T14:35:07.499Z,7.60
2023-01-10T14:37:39.963Z,8.36
2023-01-10T14:40:12.561Z,8.77
2023-01-10T14:42:39.770Z,9.09
2023-01-10T14:45:16.252Z,8.76
2023-01-10T14:47:43.692Z,8.34
2023-01-10T14:50:28.073Z,8.59
2023-01-10T14:52:56.315Z,8.23
2023-01-10T14:55:23.607Z,7.99
2023-01-10T14:57:57.533Z,7.97
2023-01-10T15:00:28.195Z,8.57
2023-01-10T15:02:55.668Z,8.01
2023-01-10T15:05:26.874Z,8.59
2023-01-10T15:07:54.726Z,8.67
2023-01-10T15:10:23.440Z,8.38
2023-01-10T15:12:54.977Z,7.59
2023-01-10T15:15:24.213Z,7.68
2023-01-10T15:17:51.352Z,7.66
2023-01-10T15:20:18.699Z,8.45
2023-01-10T15:22:47.494Z,8.69
2023-01-10T15:25:17.713Z,8.87
2023-01-10T15:27:45.413Z,9.05
2023-01-10T15:30:17.631Z,9.32
2023-01-10T15:32:45.399Z,9.47
2023-01-10T15:35:14.296Z,9.10
2023-01-10T15:37:49.811Z,8.66
2023-01-10T15:40:24.340Z,8.80
2023-01-10T15:42:51.948Z,8.93
2023-01-10T15:45:27.740Z,9.03
2023-01-10T15:48:03.037Z,8.58
2023-01-10T15:50:40.431Z,8.28
2023-01-10T15:53:09.549Z,8.59
2023-01-10T15:55:50.817Z,8.06
2023-01-10T15:58:30.933Z,7.72
2023-01-10T16:00:59.272Z,8.15
2023-01-10T16:03:28.811Z,8.71
2023-01-10T16:05:56.708Z,8.50
2023-01-10T16:08:25.890Z,8.51
2023-01-10T16:10:57.844Z,8.22
2023-01-10T16:13:28.347Z,8.20
2023-01-10T16:15:56.264Z,7.96
2023-01-10T16:18:23.811Z,8.35
2023-01-10T16:20:51.690Z,8.27
2023-01-10T16:23:19.703Z,8.22
2023-01-10T16:25:48.090Z,8.01
2023-01-10T16:28:15.969Z,7.68
2023-01-10T16:30:46.622Z,8.28
2023-01-10T16:33:16.325Z,7.75
2023-01-10T16:35:44.799Z,8.45
2023-01-10T16:38:12.403Z,7.78
2023-01-10T16:40:43.854Z,7.93
2023-01-10T16:43:21.760Z,8.19
2023-01-10T16:45:50.239Z,8.08
2023-01-10T16:48:18.193Z,8.47
2023-01-10T16:50:45.931Z,8.21
2023-01-10T16:53:14.204Z,8.75
2023-01-10T16:55:45.985Z,8.24
2023-01-10T16:58:13.552Z,7.72
2023-01-10T17:00:41.558Z,8.35
2023-01-10T17:03:11.475Z,8.45
2023-01-10T17:05:38.943Z,8.36
2023-01-10T17:08:06.251Z,8.14
2023-01-10T17:10:34.698Z,8.27
2023-01-10T17:13:04.193Z,8.07
2023-01-10T17:15:31.623Z,8.00
2023-01-10T17:17:59.140Z,7.68
2023-01-10T17:20:26.303Z,7.64
2023-01-10T17:22:53.451Z,7.82
2023-01-10T17:25:20.981Z,8.36
2023-01-10T17:27:48.183Z,7.99
2023-01-10T17:30:15.652Z,8.24
2023-01-10T17:32:43.203Z,8.29
2023-01-10T17:35:10.419Z,8.70
2023-01-10T17:37:38.222Z,8.43
2023-01-10T17:40:05.919Z,8.84
2023-01-10T17:42:33.098Z,9.16
2023-01-10T17:45:00.374Z,8.86
2023-01-10T17:47:27.916Z,8.80
2023-01-10T17:49:55.181Z,8.87
2023-01-10T17:52:22.505Z,8.42
2023-01-10T17:54:50.042Z,8.48
2023-01-10T17:57:17.276Z,8.31
2023-01-10T17:59:44.562Z,8.44
2023-01-10T18:02:16.619Z,9.01
2023-01-10T18:04:44.535Z,8.79
2023-01-10T18:07:13.096Z,8.24
2023-01-10T18:09:40.458Z,8.40
2023-01-10T18:12:08.045Z,9.26
2023-01-10T18:14:38.147Z,8.61
2023-01-10T18:17:06.864Z,8.88
2023-01-10T18:19:34.997Z,9.20
2023-01-10T18:22:22.873Z,9.02
2023-01-10T18:24:53.880Z,8.67
2023-01-10T18:27:21.798Z,9.28
2023-01-10T18:29:49.571Z,8.65
2023-01-10T18:32:17.442Z,8.41
2023-01-10T18:34:44.677Z,9.04
2023-01-10T18:37:11.839Z,8.70
2023-01-10T18:39:39.404Z,9.10
2023-01-10T18:42:06.712Z,9.72
2023-01-10T18:44:34.019Z,9.29
2023-01-10T18:47:01.464Z,10.04
2023-01-10T18:49:28.930Z,9.36
2023-01-10T18:51:56.372Z,8.51
2023-01-10T18:54:23.980Z,8.65
2023-01-10T18:56:51.224Z,8.91
2023-01-10T18:59:19.411Z,9.50
2023-01-10T19:01:46.856Z,9.12
2023-01-10T19:04:14.096Z,9.09
2023-01-10T19:06:44.247Z,9.24
2023-01-10T19:09:11.856Z,9.54
2023-01-10T19:11:39.037Z,8.84
2023-01-10T19:14:06.344Z,9.56
2023-01-10T19:16:33.789Z,9.71
2023-01-10T19:19:02.897Z,9.51
2023-01-10T19:21:31.667Z,9.28
2023-01-10T19:24:00.692Z,9.44
2023-01-10T19:26:28.288Z,9.28
2023-01-10T19:28:55.534Z,9.19
2023-01-10T19:31:24.148Z,9.27
2023-01-10T19:33:51.506Z,10.04
2023-01-10T19:36:19.349Z,9.52
2023-01-10T19:38:46.797Z,9.03
2023-01-10T19:41:14.443Z,8.83
2023-01-10T19:43:41.807Z,9.45
2023-01-10T19:46:10.310Z,9.56
2023-01-10T19:48:40.788Z,9.37
2023-01-10T19:51:09.222Z,9.91
2023-01-10T19:53:37.307Z,9.09
2023-01-10T19:56:05.462Z,8.90
2023-01-10T19:58:32.983Z,9.18
2023-01-10T20:01:10.411Z,8.73
2023-01-10T20:03:38.977Z,8.96
2023-01-10T20:06:06.365Z,8.89
2023-01-10T20:08:33.912Z,8.75
2023-01-10T20:11:05.691Z,8.69
2023-01-10T20:13:33.749Z,8.65
2023-01-10T20:16:01.127Z,8.84
2023-01-10T20:18:28.680Z,8.74
2023-01-10T20:20:55.892Z,9.05
2023-01-10T20:23:23.580Z,8.97
2023-01-10T20:25:58.146Z,8.73
2023-01-10T20:28:26.459Z,8.31
2023-01-10T20:30:53.991Z,8.16
2023-01-10T20:33:26.519Z,8.42
2023-01-10T20:35:54.836Z,8.36
2023-01-10T20:38:22.070Z,8.61
2023-01-10T20:40:49.488Z,8.95
2023-01-10T20:43:17.795Z,8.42
2023-01-10T20:45:45.094Z,8.57
2023-01-10T20:48:12.329Z,8.56
2023-01-10T20:50:43.596Z,8.91
2023-01-10T20:53:11.105Z,8.10
2023-01-10T20:55:38.261Z,8.47
2023-01-10T20:58:05.920Z,8.67
2023-01-10T21:00:33.789Z,7.83
2023-01-10T21:03:01.163Z,8.51
2023-01-10T21:05:28.712Z,8.24
2023-01-10T21:07:55.942Z,8.38
2023-01-10T21:10:23.176Z,8.67
2023-01-10T21:12:50.873Z,8.30
2023-01-10T21:15:18.022Z,8.21
2023-01-10T21:17:45.321Z,8.40
2023-01-10T21:20:13.675Z,8.39
2023-01-10T21:22:40.880Z,7.52
2023-01-10T21:25:08.474Z,8.52
2023-01-10T21:27:35.925Z,8.50
2023-01-10T21:30:06.157Z,7.96
2023-01-10T21:32:34.054Z,7.74
2023-01-10T21:35:01.541Z,8.28
2023-01-10T21:37:28.694Z,7.80
2023-01-10T21:39:56.176Z,8.35
2023-01-10T21:42:37.566Z,8.02
2023-01-10T21:45:06.093Z,7.51
2023-01-10T21:47:35.658Z,7.69
2023-01-10T21:50:03.408Z,7.73
2023-01-10T21:52:30.534Z,7.81
2023-01-10T21:54:58.011Z,7.70
2023-01-10T21:57:25.899Z,7.47
2023-01-10T21:59:53.134Z,7.59
2023-01-10T22:02:21.187Z,6.80
2023-01-10T22:04:50.670Z,7.18
2023-01-10T22:07:18.483Z,7.55
2023-01-10T22:09:45.756Z,7.20
2023-01-10T22:12:14.144Z,7.27
2023-01-10T22:14:41.422Z,7.13
2023-01-10T22:17:08.610Z,7.05
2023-01-10T22:19:36.106Z,7.00
2023-01-10T22:22:03.374Z,7.02
2023-01-10T22:24:30.839Z,7.20
2023-01-10T22:26:58.445Z,7.00
2023-01-10T22:29:26.408Z,7.16
2023-01-10T22:31:53.853Z,7.27
2023-01-10T22:34:21.470Z,6.71
2023-01-10T22:36:48.759Z,6.96
2023-01-10T22:39:15.915Z,6.97
2023-01-10T22:41:43.733Z,6.43
2023-01-10T22:44:16.530Z,6.77
2023-01-10T22:46:44.007Z,6.26
2023-01-10T22:49:11.188Z,6.71
2023-01-10T22:51:38.359Z,6.98
2023-01-10T22:54:05.860Z,6.93
2023-01-10T22:56:33.016Z,7.13
2023-01-10T22:59:00.308Z,7.06
2023-01-10T23:01:27.810Z,7.07
2023-01-10T23:03:54.910Z,6.60
2023-01-10T23:06:22.108Z,7.14
2023-01-10T23:08:50.471Z,6.81
2023-01-10T23:11:18.433Z,6.65
2023-01-10T23:13:46.321Z,6.55
2023-01-10T23:16:15.133Z,6.36
2023-01-10T23:18:42.353Z,6.74
2023-01-10T23:21:09.725Z,6.56
2023-01-10T23:23:37.084Z,6.61
2023-01-10T23:26:05.430Z,6.83
2023-01-10T23:28:36.354Z,6.99
2023-01-10T23:31:04.043Z,6.76
2023-01-10T23:33:31.481Z,6.57
2023-01-10T23:35:58.850Z,6.65
2023-01-10T23:38:26.447Z,6.56
2023-01-10T23:40:53.893Z,6.64
2023-01-10T23:43:21.386Z,6.86
2023-01-10T23:45:48.902Z,6.56
2023-01-10T23:48:16.293Z,6.92
2023-01-10T23:50:43.522Z,6.98
2023-01-10T23:53:11.000Z,6.64
2023-01-10T23:55:38.108Z,7.22
2023-01-10T23:58:05.275Z,6.70
